sensor_id;sensor_type;location;lat;lon;timestamp;temperature;humidity
16995;DHT22;8614;48.522;9.206;2023-08-31T00:00:08;14.10;99.90
16995;DHT22;8614;48.522;9.206;2023-08-31T00:02:35;14.10;99.90
16995;DHT22;8614;48.522;9.206;2023-08-31T00:05:02;14.10;99.90
16995;DHT22;8614;48.522;9.206;2023-08-31T00:07:31;14.10;99.90
16995;DHT22;8614;48.522;9.206;2023-08-31T00:09:58;14.10;99.90
16995;DHT22;8614;48.522;9.206;2023-08-31T00:12:25;14.00;99.90
16995;DHT22;8614;48.522;9.206;2023-08-31T00:14:52;14.10;99.90
16995;DHT22;8614;48.522;9.206;2023-08-31T00:17:19;14.10;99.90
16995;DHT22;8614;48.522;9.206;2023-08-31T00:19:45;14.00;99.90
16995;DHT22;8614;48.522;9.206;2023-08-31T00:22:12;14.10;99.90
16995;DHT22;8614;48.522;9.206;2023-08-31T00:24:41;14.10;99.90
16995;DHT22;8614;48.522;9.206;2023-08-31T00:27:08;14.00;99.90
16995;DHT22;8614;48.522;9.206;2023-08-31T00:29:37;14.00;99.90
16995;DHT22;8614;48.522;9.206;2023-08-31T00:32:04;14.00;99.90
16995;DHT22;8614;48.522;9.206;2023-08-31T00:34:31;13.90;99.90
16995;DHT22;8614;48.522;9.206;2023-08-31T00:36:58;13.90;99.90
16995;DHT22;8614;48.522;9.206;2023-08-31T00:39:25;13.90;99.90
16995;DHT22;8614;48.522;9.206;2023-08-31T00:41:54;13.90;99.90
16995;DHT22;8614;48.522;9.206;2023-08-31T00:44:21;13.90;99.90
16995;DHT22;8614;48.522;9.206;2023-08-31T00:46:48;13.90;99.90
16995;DHT22;8614;48.522;9.206;2023-08-31T00:49:15;13.90;99.90
16995;DHT22;8614;48.522;9.206;2023-08-31T00:51:43;13.90;99.90
16995;DHT22;8614;48.522;9.206;2023-08-31T00:54:14;13.90;99.90
16995;DHT22;8614;48.522;9.206;2023-08-31T00:56:41;13.90;99.90
16995;DHT22;8614;48.522;9.206;2023-08-31T00:59:09;13.90;99.90
16995;DHT22;8614;48.522;9.206;2023-08-31T01:01:39;13.90;99.90
16995;DHT22;8614;48.522;9.206;2023-08-31T01:04:17;13.90;99.90
16995;DHT22;8614;48.522;9.206;2023-08-31T01:06:51;13.90;99.90
16995;DHT22;8614;48.522;9.206;2023-08-31T01:09:27;13.80;99.90
16995;DHT22;8614;48.522;9.206;2023-08-31T01:12:02;13.80;99.90
16995;DHT22;8614;48.522;9.206;2023-08-31T01:14:33;13.80;99.90
16995;DHT22;8614;48.522;9.206;2023-08-31T01:17:02;13.90;99.90
16995;DHT22;8614;48.522;9.206;2023-08-31T01:19:39;13.80;99.90
16995;DHT22;8614;48.522;9.206;2023-08-31T01:22:11;13.80;99.90
16995;DHT22;8614;48.522;9.206;2023-08-31T01:24:41;13.80;99.90
16995;DHT22;8614;48.522;9.206;2023-08-31T01:27:08;13.80;99.90
16995;DHT22;8614;48.522;9.206;2023-08-31T01:29:36;13.80;99.90
16995;DHT22;8614;48.522;9.206;2023-08-31T01:32:05;13.80;99.90
16995;DHT22;8614;48.522;9.206;2023-08-31T01:34:33;13.90;99.90
16995;DHT22;8614;48.522;9.206;2023-08-31T01:37:13;13.90;99.90
16995;DHT22;8614;48.522;9.206;2023-08-31T01:39:48;13.80;99.90
16995;DHT22;8614;48.522;9.206;2023-08-31T01:42:19;13.80;99.90
16995;DHT22;8614;48.522;9.206;2023-08-31T01:44:47;13.80;99.90
16995;DHT22;8614;48.522;9.206;2023-08-31T01:47:15;13.80;99.90
16995;DHT22;8614;48.522;9.206;2023-08-31T01:49:45;13.80;99.90
16995;DHT22;8614;48.522;9.206;2023-08-31T01:52:12;13.80;99.90
16995;DHT22;8614;48.522;9.206;2023-08-31T01:54:38;13.70;99.90
16995;DHT22;8614;48.522;9.206;2023-08-31T01:57:07;13.80;99.90
16995;DHT22;8614;48.522;9.206;2023-08-31T01:59:43;13.70;99.90
16995;DHT22;8614;48.522;9.206;2023-08-31T02:02:10;13.70;99.90
16995;DHT22;8614;48.522;9.206;2023-08-31T02:04:37;13.70;99.90
16995;DHT22;8614;48.522;9.206;2023-08-31T02:07:04;13.60;99.90
16995;DHT22;8614;48.522;9.206;2023-08-31T02:09:33;13.60;99.90
16995;DHT22;8614;48.522;9.206;2023-08-31T02:12:00;13.60;99.90
16995;DHT22;8614;48.522;9.206;2023-08-31T02:14:29;13.60;99.90
16995;DHT22;8614;48.522;9.206;2023-08-31T02:16:56;13.60;99.90
16995;DHT22;8614;48.522;9.206;2023-08-31T02:19:23;13.60;99.90
16995;DHT22;8614;48.522;9.206;2023-08-31T02:21:49;13.60;99.90
16995;DHT22;8614;48.522;9.206;2023-08-31T02:24:16;13.70;99.90
16995;DHT22;8614;48.522;9.206;2023-08-31T02:26:43;13.60;99.90
16995;DHT22;8614;48.522;9.206;2023-08-31T02:29:11;13.60;99.90
16995;DHT22;8614;48.522;9.206;2023-08-31T02:31:39;13.60;99.90
16995;DHT22;8614;48.522;9.206;2023-08-31T02:34:07;13.60;99.90
16995;DHT22;8614;48.522;9.206;2023-08-31T02:36:34;13.60;99.90
16995;DHT22;8614;48.522;9.206;2023-08-31T02:39:02;13.60;99.90
16995;DHT22;8614;48.522;9.206;2023-08-31T02:41:30;13.60;99.90
16995;DHT22;8614;48.522;9.206;2023-08-31T02:43:57;13.50;99.90
16995;DHT22;8614;48.522;9.206;2023-08-31T02:46:25;13.50;99.90
16995;DHT22;8614;48.522;9.206;2023-08-31T02:48:53;13.50;99.90
16995;DHT22;8614;48.522;9.206;2023-08-31T02:51:20;13.50;99.90
16995;DHT22;8614;48.522;9.206;2023-08-31T02:53:46;13.50;99.90
16995;DHT22;8614;48.522;9.206;2023-08-31T02:56:14;13.50;99.90
16995;DHT22;8614;48.522;9.206;2023-08-31T02:58:41;13.50;99.90
16995;DHT22;8614;48.522;9.206;2023-08-31T03:01:09;13.50;99.90
16995;DHT22;8614;48.522;9.206;2023-08-31T03:03:40;13.40;99.90
16995;DHT22;8614;48.522;9.206;2023-08-31T03:06:09;13.40;99.90
16995;DHT22;8614;48.522;9.206;2023-08-31T03:08:37;13.40;99.90
16995;DHT22;8614;48.522;9.206;2023-08-31T03:11:05;13.40;99.90
16995;DHT22;8614;48.522;9.206;2023-08-31T03:13:32;13.40;99.90
16995;DHT22;8614;48.522;9.206;2023-08-31T03:15:59;13.40;99.90
16995;DHT22;8614;48.522;9.206;2023-08-31T03:18:26;13.40;99.90
16995;DHT22;8614;48.522;9.206;2023-08-31T03:20:54;13.40;99.90
16995;DHT22;8614;48.522;9.206;2023-08-31T03:23:22;13.30;99.90
16995;DHT22;8614;48.522;9.206;2023-08-31T03:25:50;13.40;99.90
16995;DHT22;8614;48.522;9.206;2023-08-31T03:28:17;13.30;99.90
16995;DHT22;8614;48.522;9.206;2023-08-31T03:30:44;13.30;99.90
16995;DHT22;8614;48.522;9.206;2023-08-31T03:33:11;13.30;99.90
16995;DHT22;8614;48.522;9.206;2023-08-31T03:35:39;13.30;99.90
16995;DHT22;8614;48.522;9.206;2023-08-31T03:38:07;13.20;99.90
16995;DHT22;8614;48.522;9.206;2023-08-31T03:40:36;13.20;99.90
16995;DHT22;8614;48.522;9.206;2023-08-31T03:43:03;13.30;99.90
16995;DHT22;8614;48.522;9.206;2023-08-31T03:45:30;13.30;99.90
16995;DHT22;8614;48.522;9.206;2023-08-31T03:47:56;13.30;99.90
16995;DHT22;8614;48.522;9.206;2023-08-31T03:50:24;13.20;99.90
16995;DHT22;8614;48.522;9.206;2023-08-31T03:52:51;13.20;99.90
16995;DHT22;8614;48.522;9.206;2023-08-31T03:55:18;13.20;99.90
16995;DHT22;8614;48.522;9.206;2023-08-31T03:57:46;13.20;99.90
16995;DHT22;8614;48.522;9.206;2023-08-31T04:00:17;13.20;99.90
16995;DHT22;8614;48.522;9.206;2023-08-31T04:02:45;13.20;99.90
16995;DHT22;8614;48.522;9.206;2023-08-31T04:05:15;13.20;99.90
16995;DHT22;8614;48.522;9.206;2023-08-31T04:07:43;13.20;99.90
16995;DHT22;8614;48.522;9.206;2023-08-31T04:10:10;13.20;99.90
16995;DHT22;8614;48.522;9.206;2023-08-31T04:12:37;13.20;99.90
16995;DHT22;8614;48.522;9.206;2023-08-31T04:15:07;13.20;99.90
16995;DHT22;8614;48.522;9.206;2023-08-31T04:17:35;13.20;99.90
16995;DHT22;8614;48.522;9.206;2023-08-31T04:20:03;13.20;99.90
16995;DHT22;8614;48.522;9.206;2023-08-31T04:22:31;13.20;99.90
16995;DHT22;8614;48.522;9.206;2023-08-31T04:24:58;13.30;99.90
16995;DHT22;8614;48.522;9.206;2023-08-31T04:27:25;13.30;99.90
16995;DHT22;8614;48.522;9.206;2023-08-31T04:29:52;13.20;99.90
16995;DHT22;8614;48.522;9.206;2023-08-31T04:32:20;13.30;99.90
16995;DHT22;8614;48.522;9.206;2023-08-31T04:34:47;13.30;99.90
16995;DHT22;8614;48.522;9.206;2023-08-31T04:37:13;13.20;99.90
16995;DHT22;8614;48.522;9.206;2023-08-31T04:39:40;13.30;99.90
16995;DHT22;8614;48.522;9.206;2023-08-31T04:42:07;13.30;99.90
16995;DHT22;8614;48.522;9.206;2023-08-31T04:44:34;13.20;99.90
16995;DHT22;8614;48.522;9.206;2023-08-31T04:47:01;13.20;99.90
16995;DHT22;8614;48.522;9.206;2023-08-31T04:49:29;13.20;99.90
16995;DHT22;8614;48.522;9.206;2023-08-31T04:51:56;13.20;99.90
16995;DHT22;8614;48.522;9.206;2023-08-31T04:54:23;13.20;99.90
16995;DHT22;8614;48.522;9.206;2023-08-31T04:56:50;13.20;99.90
16995;DHT22;8614;48.522;9.206;2023-08-31T04:59:16;13.20;99.90
16995;DHT22;8614;48.522;9.206;2023-08-31T05:01:43;13.20;99.90
16995;DHT22;8614;48.522;9.206;2023-08-31T05:04:10;13.20;99.90
16995;DHT22;8614;48.522;9.206;2023-08-31T05:06:38;13.20;99.90
16995;DHT22;8614;48.522;9.206;2023-08-31T05:09:05;13.20;99.90
16995;DHT22;8614;48.522;9.206;2023-08-31T05:11:33;13.20;99.90
16995;DHT22;8614;48.522;9.206;2023-08-31T05:13:59;13.30;99.90
16995;DHT22;8614;48.522;9.206;2023-08-31T05:16:26;13.30;99.90
16995;DHT22;8614;48.522;9.206;2023-08-31T05:18:53;13.30;99.90
16995;DHT22;8614;48.522;9.206;2023-08-31T05:21:20;13.40;99.90
16995;DHT22;8614;48.522;9.206;2023-08-31T05:23:48;13.50;99.90
16995;DHT22;8614;48.522;9.206;2023-08-31T05:26:14;13.50;99.90
16995;DHT22;8614;48.522;9.206;2023-08-31T05:28:41;13.60;99.90
16995;DHT22;8614;48.522;9.206;2023-08-31T05:31:08;13.60;99.90
16995;DHT22;8614;48.522;9.206;2023-08-31T05:33:35;13.60;99.90
16995;DHT22;8614;48.522;9.206;2023-08-31T05:36:03;13.60;99.90
16995;DHT22;8614;48.522;9.206;2023-08-31T05:38:30;13.70;99.90
16995;DHT22;8614;48.522;9.206;2023-08-31T05:41:05;13.80;99.90
16995;DHT22;8614;48.522;9.206;2023-08-31T05:43:33;13.80;99.90
16995;DHT22;8614;48.522;9.206;2023-08-31T05:46:00;13.90;99.90
16995;DHT22;8614;48.522;9.206;2023-08-31T05:48:28;14.00;99.90
16995;DHT22;8614;48.522;9.206;2023-08-31T05:50:55;14.00;99.90
16995;DHT22;8614;48.522;9.206;2023-08-31T05:53:22;14.20;99.90
16995;DHT22;8614;48.522;9.206;2023-08-31T05:55:49;14.40;99.90
16995;DHT22;8614;48.522;9.206;2023-08-31T05:58:17;14.50;99.90
16995;DHT22;8614;48.522;9.206;2023-08-31T06:00:44;14.60;99.90
16995;DHT22;8614;48.522;9.206;2023-08-31T06:03:10;14.50;99.90
16995;DHT22;8614;48.522;9.206;2023-08-31T06:05:37;14.50;99.90
16995;DHT22;8614;48.522;9.206;2023-08-31T06:08:05;14.40;99.90
16995;DHT22;8614;48.522;9.206;2023-08-31T06:10:32;14.40;99.90
16995;DHT22;8614;48.522;9.206;2023-08-31T06:12:59;14.40;99.90
16995;DHT22;8614;48.522;9.206;2023-08-31T06:15:27;14.40;99.90
16995;DHT22;8614;48.522;9.206;2023-08-31T06:17:54;14.40;99.90
16995;DHT22;8614;48.522;9.206;2023-08-31T06:20:21;14.40;99.90
16995;DHT22;8614;48.522;9.206;2023-08-31T06:22:48;14.50;99.90
16995;DHT22;8614;48.522;9.206;2023-08-31T06:25:15;14.50;99.90
16995;DHT22;8614;48.522;9.206;2023-08-31T06:27:42;14.50;99.90
16995;DHT22;8614;48.522;9.206;2023-08-31T06:30:09;14.60;99.90
16995;DHT22;8614;48.522;9.206;2023-08-31T06:32:42;14.70;99.90
16995;DHT22;8614;48.522;9.206;2023-08-31T06:35:10;14.80;99.90
16995;DHT22;8614;48.522;9.206;2023-08-31T06:37:37;14.90;99.90
16995;DHT22;8614;48.522;9.206;2023-08-31T06:40:05;15.00;99.90
16995;DHT22;8614;48.522;9.206;2023-08-31T06:42:33;15.00;99.90
16995;DHT22;8614;48.522;9.206;2023-08-31T06:45:00;15.10;99.90
16995;DHT22;8614;48.522;9.206;2023-08-31T06:47:27;15.10;99.90
16995;DHT22;8614;48.522;9.206;2023-08-31T06:49:55;15.20;99.90
16995;DHT22;8614;48.522;9.206;2023-08-31T06:52:23;15.30;99.90
16995;DHT22;8614;48.522;9.206;2023-08-31T06:54:50;15.50;99.90
16995;DHT22;8614;48.522;9.206;2023-08-31T06:57:20;15.60;99.90
16995;DHT22;8614;48.522;9.206;2023-08-31T06:59:47;15.80;99.90
16995;DHT22;8614;48.522;9.206;2023-08-31T07:02:14;15.90;99.90
16995;DHT22;8614;48.522;9.206;2023-08-31T07:04:41;16.10;99.90
16995;DHT22;8614;48.522;9.206;2023-08-31T07:07:10;16.20;99.90
16995;DHT22;8614;48.522;9.206;2023-08-31T07:09:39;16.30;99.90
16995;DHT22;8614;48.522;9.206;2023-08-31T07:12:06;16.40;99.90
16995;DHT22;8614;48.522;9.206;2023-08-31T07:14:33;16.40;99.90
16995;DHT22;8614;48.522;9.206;2023-08-31T07:17:00;16.40;99.90
16995;DHT22;8614;48.522;9.206;2023-08-31T07:19:27;16.30;99.90
16995;DHT22;8614;48.522;9.206;2023-08-31T07:21:54;16.20;99.90
16995;DHT22;8614;48.522;9.206;2023-08-31T07:24:23;16.40;99.90
16995;DHT22;8614;48.522;9.206;2023-08-31T07:26:50;16.70;99.90
16995;DHT22;8614;48.522;9.206;2023-08-31T07:29:17;16.90;99.90
16995;DHT22;8614;48.522;9.206;2023-08-31T07:31:43;17.50;99.90
16995;DHT22;8614;48.522;9.206;2023-08-31T07:34:10;17.70;99.90
16995;DHT22;8614;48.522;9.206;2023-08-31T07:36:37;17.70;99.90
16995;DHT22;8614;48.522;9.206;2023-08-31T07:39:05;17.70;99.90
16995;DHT22;8614;48.522;9.206;2023-08-31T07:41:34;17.60;99.90
16995;DHT22;8614;48.522;9.206;2023-08-31T07:44:00;17.50;99.90
16995;DHT22;8614;48.522;9.206;2023-08-31T07:46:28;17.50;99.90
16995;DHT22;8614;48.522;9.206;2023-08-31T07:48:55;17.50;99.90
16995;DHT22;8614;48.522;9.206;2023-08-31T07:51:21;17.50;99.90
16995;DHT22;8614;48.522;9.206;2023-08-31T07:53:50;17.50;99.90
16995;DHT22;8614;48.522;9.206;2023-08-31T07:56:17;17.50;99.90
16995;DHT22;8614;48.522;9.206;2023-08-31T07:58:45;17.40;99.90
16995;DHT22;8614;48.522;9.206;2023-08-31T08:01:12;17.40;99.90
16995;DHT22;8614;48.522;9.206;2023-08-31T08:03:39;17.30;99.90
16995;DHT22;8614;48.522;9.206;2023-08-31T08:06:07;17.30;99.90
16995;DHT22;8614;48.522;9.206;2023-08-31T08:08:34;17.20;99.90
16995;DHT22;8614;48.522;9.206;2023-08-31T08:11:00;17.20;99.90
16995;DHT22;8614;48.522;9.206;2023-08-31T08:13:28;17.50;99.90
16995;DHT22;8614;48.522;9.206;2023-08-31T08:15:56;18.10;99.90
16995;DHT22;8614;48.522;9.206;2023-08-31T08:18:23;18.80;99.90
16995;DHT22;8614;48.522;9.206;2023-08-31T08:20:50;19.60;99.90
16995;DHT22;8614;48.522;9.206;2023-08-31T08:23:17;20.20;99.90
16995;DHT22;8614;48.522;9.206;2023-08-31T08:25:44;20.70;99.90
16995;DHT22;8614;48.522;9.206;2023-08-31T08:28:10;21.00;99.90
16995;DHT22;8614;48.522;9.206;2023-08-31T08:30:37;21.10;99.90
16995;DHT22;8614;48.522;9.206;2023-08-31T08:33:06;21.30;99.90
16995;DHT22;8614;48.522;9.206;2023-08-31T08:35:32;21.30;99.90
16995;DHT22;8614;48.522;9.206;2023-08-31T08:37:59;20.80;99.90
16995;DHT22;8614;48.522;9.206;2023-08-31T08:40:26;20.80;99.90
16995;DHT22;8614;48.522;9.206;2023-08-31T08:42:53;21.10;99.90
16995;DHT22;8614;48.522;9.206;2023-08-31T08:45:24;21.30;99.90
16995;DHT22;8614;48.522;9.206;2023-08-31T08:47:51;21.30;99.90
16995;DHT22;8614;48.522;9.206;2023-08-31T08:50:20;21.40;99.90
16995;DHT22;8614;48.522;9.206;2023-08-31T08:52:49;21.60;99.90
16995;DHT22;8614;48.522;9.206;2023-08-31T08:55:16;21.90;99.90
16995;DHT22;8614;48.522;9.206;2023-08-31T08:57:42;21.80;99.90
16995;DHT22;8614;48.522;9.206;2023-08-31T09:00:10;21.90;99.90
16995;DHT22;8614;48.522;9.206;2023-08-31T09:02:37;22.00;99.90
16995;DHT22;8614;48.522;9.206;2023-08-31T09:05:04;22.20;99.90
16995;DHT22;8614;48.522;9.206;2023-08-31T09:07:34;22.40;99.90
16995;DHT22;8614;48.522;9.206;2023-08-31T09:10:02;22.40;99.90
16995;DHT22;8614;48.522;9.206;2023-08-31T09:12:30;22.00;99.90
16995;DHT22;8614;48.522;9.206;2023-08-31T09:14:58;22.10;99.90
16995;DHT22;8614;48.522;9.206;2023-08-31T09:17:25;22.00;99.90
16995;DHT22;8614;48.522;9.206;2023-08-31T09:19:59;21.50;99.90
16995;DHT22;8614;48.522;9.206;2023-08-31T09:22:27;21.20;99.90
16995;DHT22;8614;48.522;9.206;2023-08-31T09:24:56;20.90;99.90
16995;DHT22;8614;48.522;9.206;2023-08-31T09:27:22;20.60;99.90
16995;DHT22;8614;48.522;9.206;2023-08-31T09:29:50;20.30;99.90
16995;DHT22;8614;48.522;9.206;2023-08-31T09:32:17;19.90;99.90
16995;DHT22;8614;48.522;9.206;2023-08-31T09:34:44;19.90;99.90
16995;DHT22;8614;48.522;9.206;2023-08-31T09:37:11;20.00;99.90
16995;DHT22;8614;48.522;9.206;2023-08-31T09:39:39;20.00;99.90
16995;DHT22;8614;48.522;9.206;2023-08-31T09:42:08;20.50;99.90
16995;DHT22;8614;48.522;9.206;2023-08-31T09:44:39;20.70;99.90
16995;DHT22;8614;48.522;9.206;2023-08-31T09:47:06;20.60;99.90
16995;DHT22;8614;48.522;9.206;2023-08-31T09:49:34;20.70;99.90
16995;DHT22;8614;48.522;9.206;2023-08-31T09:52:03;20.60;99.90
16995;DHT22;8614;48.522;9.206;2023-08-31T09:54:33;20.90;99.90
16995;DHT22;8614;48.522;9.206;2023-08-31T09:57:01;20.90;99.90
16995;DHT22;8614;48.522;9.206;2023-08-31T09:59:30;20.90;99.90
16995;DHT22;8614;48.522;9.206;2023-08-31T10:02:00;21.00;99.90
16995;DHT22;8614;48.522;9.206;2023-08-31T10:04:29;21.00;99.90
16995;DHT22;8614;48.522;9.206;2023-08-31T10:06:58;20.90;99.90
16995;DHT22;8614;48.522;9.206;2023-08-31T10:09:26;20.70;99.90
16995;DHT22;8614;48.522;9.206;2023-08-31T10:11:54;20.60;99.90
16995;DHT22;8614;48.522;9.206;2023-08-31T10:14:22;20.40;99.90
16995;DHT22;8614;48.522;9.206;2023-08-31T10:16:50;20.30;99.90
16995;DHT22;8614;48.522;9.206;2023-08-31T10:19:18;20.20;99.90
16995;DHT22;8614;48.522;9.206;2023-08-31T10:21:45;20.10;99.90
16995;DHT22;8614;48.522;9.206;2023-08-31T10:24:12;20.20;99.90
16995;DHT22;8614;48.522;9.206;2023-08-31T10:26:39;20.30;99.90
16995;DHT22;8614;48.522;9.206;2023-08-31T10:29:06;20.10;99.90
16995;DHT22;8614;48.522;9.206;2023-08-31T10:31:33;19.90;99.90
16995;DHT22;8614;48.522;9.206;2023-08-31T10:34:03;19.60;99.90
16995;DHT22;8614;48.522;9.206;2023-08-31T10:36:38;19.30;99.90
16995;DHT22;8614;48.522;9.206;2023-08-31T10:39:06;19.20;99.90
16995;DHT22;8614;48.522;9.206;2023-08-31T10:41:37;19.50;99.90
16995;DHT22;8614;48.522;9.206;2023-08-31T10:44:17;19.90;99.90
16995;DHT22;8614;48.522;9.206;2023-08-31T10:46:46;20.10;99.90
16995;DHT22;8614;48.522;9.206;2023-08-31T10:49:15;20.00;99.90
16995;DHT22;8614;48.522;9.206;2023-08-31T10:51:44;19.90;99.90
16995;DHT22;8614;48.522;9.206;2023-08-31T10:54:12;19.90;99.90
16995;DHT22;8614;48.522;9.206;2023-08-31T10:57:02;20.20;99.90
16995;DHT22;8614;48.522;9.206;2023-08-31T10:59:51;20.40;99.90
16995;DHT22;8614;48.522;9.206;2023-08-31T11:02:35;20.60;99.90
16995;DHT22;8614;48.522;9.206;2023-08-31T11:05:08;20.70;99.90
16995;DHT22;8614;48.522;9.206;2023-08-31T11:07:35;20.70;99.90
16995;DHT22;8614;48.522;9.206;2023-08-31T11:10:14;20.70;99.90
16995;DHT22;8614;48.522;9.206;2023-08-31T11:12:41;20.70;99.90
16995;DHT22;8614;48.522;9.206;2023-08-31T11:15:11;20.80;99.90
16995;DHT22;8614;48.522;9.206;2023-08-31T11:17:39;21.00;99.90
16995;DHT22;8614;48.522;9.206;2023-08-31T11:20:12;21.10;99.90
16995;DHT22;8614;48.522;9.206;2023-08-31T11:22:41;21.50;99.90
16995;DHT22;8614;48.522;9.206;2023-08-31T11:25:09;21.40;99.90
16995;DHT22;8614;48.522;9.206;2023-08-31T11:27:37;21.20;99.90
16995;DHT22;8614;48.522;9.206;2023-08-31T11:30:11;20.90;99.90
16995;DHT22;8614;48.522;9.206;2023-08-31T11:32:44;20.60;99.90
16995;DHT22;8614;48.522;9.206;2023-08-31T11:35:13;20.60;99.90
16995;DHT22;8614;48.522;9.206;2023-08-31T11:37:41;20.70;99.90
16995;DHT22;8614;48.522;9.206;2023-08-31T11:40:09;20.50;99.90
16995;DHT22;8614;48.522;9.206;2023-08-31T11:42:36;20.50;99.90
16995;DHT22;8614;48.522;9.206;2023-08-31T11:45:04;20.60;99.90
16995;DHT22;8614;48.522;9.206;2023-08-31T11:47:31;20.70;99.90
16995;DHT22;8614;48.522;9.206;2023-08-31T11:49:59;20.60;99.90
16995;DHT22;8614;48.522;9.206;2023-08-31T11:52:30;20.60;99.90
16995;DHT22;8614;48.522;9.206;2023-08-31T11:54:57;20.90;99.90
16995;DHT22;8614;48.522;9.206;2023-08-31T11:57:26;21.10;99.90
16995;DHT22;8614;48.522;9.206;2023-08-31T11:59:54;21.20;99.90
16995;DHT22;8614;48.522;9.206;2023-08-31T12:02:22;21.20;99.90
16995;DHT22;8614;48.522;9.206;2023-08-31T12:04:48;21.30;99.90
16995;DHT22;8614;48.522;9.206;2023-08-31T12:07:16;21.40;99.90
16995;DHT22;8614;48.522;9.206;2023-08-31T12:09:45;21.50;99.90
16995;DHT22;8614;48.522;9.206;2023-08-31T12:12:14;21.40;99.90
16995;DHT22;8614;48.522;9.206;2023-08-31T12:14:43;21.40;99.90
16995;DHT22;8614;48.522;9.206;2023-08-31T12:17:09;21.20;99.90
16995;DHT22;8614;48.522;9.206;2023-08-31T12:19:37;21.10;99.90
16995;DHT22;8614;48.522;9.206;2023-08-31T12:22:04;21.10;99.90
16995;DHT22;8614;48.522;9.206;2023-08-31T12:24:42;21.10;99.90
16995;DHT22;8614;48.522;9.206;2023-08-31T12:27:11;21.00;99.90
16995;DHT22;8614;48.522;9.206;2023-08-31T12:29:38;20.80;99.90
16995;DHT22;8614;48.522;9.206;2023-08-31T12:32:05;20.80;99.90
16995;DHT22;8614;48.522;9.206;2023-08-31T12:34:32;20.90;99.90
16995;DHT22;8614;48.522;9.206;2023-08-31T12:36:59;20.80;99.90
16995;DHT22;8614;48.522;9.206;2023-08-31T12:39:28;20.80;99.90
16995;DHT22;8614;48.522;9.206;2023-08-31T12:41:54;20.80;99.90
16995;DHT22;8614;48.522;9.206;2023-08-31T12:44:23;21.00;99.90
16995;DHT22;8614;48.522;9.206;2023-08-31T12:46:51;21.10;99.90
16995;DHT22;8614;48.522;9.206;2023-08-31T12:49:18;21.10;99.90
16995;DHT22;8614;48.522;9.206;2023-08-31T12:51:45;21.20;99.90
16995;DHT22;8614;48.522;9.206;2023-08-31T12:54:12;21.10;99.90
16995;DHT22;8614;48.522;9.206;2023-08-31T12:56:41;21.10;99.90
16995;DHT22;8614;48.522;9.206;2023-08-31T12:59:07;21.10;99.90
16995;DHT22;8614;48.522;9.206;2023-08-31T13:01:35;21.00;99.90
16995;DHT22;8614;48.522;9.206;2023-08-31T13:04:02;20.70;99.90
16995;DHT22;8614;48.522;9.206;2023-08-31T13:06:30;20.60;99.90
16995;DHT22;8614;48.522;9.206;2023-08-31T13:08:57;20.70;99.90
16995;DHT22;8614;48.522;9.206;2023-08-31T13:11:24;20.70;99.90
16995;DHT22;8614;48.522;9.206;2023-08-31T13:13:51;20.70;99.90
16995;DHT22;8614;48.522;9.206;2023-08-31T13:16:18;20.70;99.90
16995;DHT22;8614;48.522;9.206;2023-08-31T13:18:48;20.60;99.90
16995;DHT22;8614;48.522;9.206;2023-08-31T13:21:15;20.60;99.90
16995;DHT22;8614;48.522;9.206;2023-08-31T13:23:42;20.60;99.90
16995;DHT22;8614;48.522;9.206;2023-08-31T13:26:10;20.70;99.90
16995;DHT22;8614;48.522;9.206;2023-08-31T13:28:37;20.90;99.90
16995;DHT22;8614;48.522;9.206;2023-08-31T13:31:04;21.00;99.90
16995;DHT22;8614;48.522;9.206;2023-08-31T13:33:31;21.10;99.90
16995;DHT22;8614;48.522;9.206;2023-08-31T13:35:59;21.10;99.90
16995;DHT22;8614;48.522;9.206;2023-08-31T13:38:26;21.00;99.90
16995;DHT22;8614;48.522;9.206;2023-08-31T13:40:57;21.00;99.90
16995;DHT22;8614;48.522;9.206;2023-08-31T13:43:24;21.10;99.90
16995;DHT22;8614;48.522;9.206;2023-08-31T13:46:00;21.30;99.90
16995;DHT22;8614;48.522;9.206;2023-08-31T13:48:29;21.40;99.90
16995;DHT22;8614;48.522;9.206;2023-08-31T13:51:02;21.30;99.90
16995;DHT22;8614;48.522;9.206;2023-08-31T13:53:29;21.40;99.90
16995;DHT22;8614;48.522;9.206;2023-08-31T13:55:55;21.50;99.90
16995;DHT22;8614;48.522;9.206;2023-08-31T13:58:22;21.70;99.90
16995;DHT22;8614;48.522;9.206;2023-08-31T14:00:49;21.70;99.90
16995;DHT22;8614;48.522;9.206;2023-08-31T14:03:16;21.80;99.90
16995;DHT22;8614;48.522;9.206;2023-08-31T14:05:42;21.70;99.90
16995;DHT22;8614;48.522;9.206;2023-08-31T14:08:15;21.50;99.90
16995;DHT22;8614;48.522;9.206;2023-08-31T14:10:41;21.40;99.90
16995;DHT22;8614;48.522;9.206;2023-08-31T14:13:08;21.30;99.90
16995;DHT22;8614;48.522;9.206;2023-08-31T14:15:35;21.40;99.90
16995;DHT22;8614;48.522;9.206;2023-08-31T14:18:09;21.40;99.90
16995;DHT22;8614;48.522;9.206;2023-08-31T14:20:39;21.50;99.90
16995;DHT22;8614;48.522;9.206;2023-08-31T14:23:06;21.40;99.90
16995;DHT22;8614;48.522;9.206;2023-08-31T14:25:35;21.40;99.90
16995;DHT22;8614;48.522;9.206;2023-08-31T14:28:04;21.30;99.90
16995;DHT22;8614;48.522;9.206;2023-08-31T14:30:31;21.30;99.90
16995;DHT22;8614;48.522;9.206;2023-08-31T14:32:58;21.30;99.90
16995;DHT22;8614;48.522;9.206;2023-08-31T14:35:25;21.20;99.90
16995;DHT22;8614;48.522;9.206;2023-08-31T14:37:51;21.40;99.90
16995;DHT22;8614;48.522;9.206;2023-08-31T14:40:19;21.40;99.90
16995;DHT22;8614;48.522;9.206;2023-08-31T14:42:49;21.40;99.90
16995;DHT22;8614;48.522;9.206;2023-08-31T14:45:18;21.40;99.90
16995;DHT22;8614;48.522;9.206;2023-08-31T14:47:45;21.20;99.90
16995;DHT22;8614;48.522;9.206;2023-08-31T14:50:12;21.00;99.90
16995;DHT22;8614;48.522;9.206;2023-08-31T14:52:38;20.80;99.90
16995;DHT22;8614;48.522;9.206;2023-08-31T14:55:06;20.60;99.90
16995;DHT22;8614;48.522;9.206;2023-08-31T14:57:32;20.60;99.90
16995;DHT22;8614;48.522;9.206;2023-08-31T15:00:01;20.50;99.90
16995;DHT22;8614;48.522;9.206;2023-08-31T15:02:30;20.50;99.90
16995;DHT22;8614;48.522;9.206;2023-08-31T15:04:57;20.50;99.90
16995;DHT22;8614;48.522;9.206;2023-08-31T15:07:24;20.60;99.90
16995;DHT22;8614;48.522;9.206;2023-08-31T15:09:52;20.60;99.90
16995;DHT22;8614;48.522;9.206;2023-08-31T15:12:18;20.60;99.90
16995;DHT22;8614;48.522;9.206;2023-08-31T15:14:45;20.50;99.90
16995;DHT22;8614;48.522;9.206;2023-08-31T15:17:13;20.50;99.90
16995;DHT22;8614;48.522;9.206;2023-08-31T15:19:40;20.50;99.90
16995;DHT22;8614;48.522;9.206;2023-08-31T15:22:07;20.50;99.90
16995;DHT22;8614;48.522;9.206;2023-08-31T15:24:34;20.50;99.90
16995;DHT22;8614;48.522;9.206;2023-08-31T15:27:02;20.40;99.90
16995;DHT22;8614;48.522;9.206;2023-08-31T15:29:29;20.40;99.90
16995;DHT22;8614;48.522;9.206;2023-08-31T15:31:56;20.30;99.90
16995;DHT22;8614;48.522;9.206;2023-08-31T15:34:26;20.20;99.90
16995;DHT22;8614;48.522;9.206;2023-08-31T15:36:53;20.10;99.90
16995;DHT22;8614;48.522;9.206;2023-08-31T15:39:19;19.90;99.90
16995;DHT22;8614;48.522;9.206;2023-08-31T15:41:47;19.80;99.90
16995;DHT22;8614;48.522;9.206;2023-08-31T15:44:14;19.70;99.90
16995;DHT22;8614;48.522;9.206;2023-08-31T15:46:41;19.70;99.90
16995;DHT22;8614;48.522;9.206;2023-08-31T15:49:08;19.70;99.90